sensor_id;sensor_type;location;lat;lon;timestamp;temperature;humidity
8684;DHT22;4379;59.744;18.206;2023-07-31T07:23:24;18.10;99.90
8684;DHT22;4379;59.744;18.206;2023-07-31T07:25:53;18.30;99.90
8684;DHT22;4379;59.744;18.206;2023-07-31T07:28:21;18.70;99.90
8684;DHT22;4379;59.744;18.206;2023-07-31T07:30:53;18.50;99.90
8684;DHT22;4379;59.744;18.206;2023-07-31T07:33:22;18.40;99.90
8684;DHT22;4379;59.744;18.206;2023-07-31T07:35:50;18.80;99.90
8684;DHT22;4379;59.744;18.206;2023-07-31T07:38:18;19.20;99.90
8684;DHT22;4379;59.744;18.206;2023-07-31T07:40:46;19.30;99.90
8684;DHT22;4379;59.744;18.206;2023-07-31T07:43:17;19.60;99.90
8684;DHT22;4379;59.744;18.206;2023-07-31T07:45:44;19.70;99.90
8684;DHT22;4379;59.744;18.206;2023-07-31T07:48:12;19.90;99.90
8684;DHT22;4379;59.744;18.206;2023-07-31T07:50:40;19.80;99.90
8684;DHT22;4379;59.744;18.206;2023-07-31T07:53:07;19.80;99.90
8684;DHT22;4379;59.744;18.206;2023-07-31T07:55:35;19.80;99.90
8684;DHT22;4379;59.744;18.206;2023-07-31T07:58:03;19.60;99.90
8684;DHT22;4379;59.744;18.206;2023-07-31T08:00:30;19.80;99.90
8684;DHT22;4379;59.744;18.206;2023-07-31T08:02:58;19.90;99.90
8684;DHT22;4379;59.744;18.206;2023-07-31T08:05:26;19.50;99.90
8684;DHT22;4379;59.744;18.206;2023-07-31T08:07:53;19.10;99.90
8684;DHT22;4379;59.744;18.206;2023-07-31T08:10:21;18.80;99.90
8684;DHT22;4379;59.744;18.206;2023-07-31T08:12:48;18.90;99.90
8684;DHT22;4379;59.744;18.206;2023-07-31T08:15:15;18.80;99.90
8684;DHT22;4379;59.744;18.206;2023-07-31T08:17:43;18.70;99.90
8684;DHT22;4379;59.744;18.206;2023-07-31T08:20:11;18.60;99.90
8684;DHT22;4379;59.744;18.206;2023-07-31T08:22:39;18.70;99.90
8684;DHT22;4379;59.744;18.206;2023-07-31T08:25:07;18.80;99.90
8684;DHT22;4379;59.744;18.206;2023-07-31T08:27:35;18.90;99.90
8684;DHT22;4379;59.744;18.206;2023-07-31T08:30:02;18.70;99.90
8684;DHT22;4379;59.744;18.206;2023-07-31T08:32:30;18.70;99.90
8684;DHT22;4379;59.744;18.206;2023-07-31T08:34:58;18.50;99.90
8684;DHT22;4379;59.744;18.206;2023-07-31T08:37:25;18.40;99.90
8684;DHT22;4379;59.744;18.206;2023-07-31T08:39:54;18.10;99.90
8684;DHT22;4379;59.744;18.206;2023-07-31T11:21:59;20.10;99.90
8684;DHT22;4379;59.744;18.206;2023-07-31T11:24:27;20.00;99.90
8684;DHT22;4379;59.744;18.206;2023-07-31T11:26:54;20.10;99.90
8684;DHT22;4379;59.744;18.206;2023-07-31T11:29:27;20.10;99.90
8684;DHT22;4379;59.744;18.206;2023-07-31T11:31:55;20.10;99.90
8684;DHT22;4379;59.744;18.206;2023-07-31T11:34:24;20.30;99.90
8684;DHT22;4379;59.744;18.206;2023-07-31T11:36:55;20.10;99.90
8684;DHT22;4379;59.744;18.206;2023-07-31T11:39:23;20.30;99.90
8684;DHT22;4379;59.744;18.206;2023-07-31T11:41:51;20.10;99.90
8684;DHT22;4379;59.744;18.206;2023-07-31T11:44:19;19.90;99.90
8684;DHT22;4379;59.744;18.206;2023-07-31T11:46:57;19.90;99.90
8684;DHT22;4379;59.744;18.206;2023-07-31T11:49:25;19.50;99.90
8684;DHT22;4379;59.744;18.206;2023-07-31T11:51:53;19.10;99.90
8684;DHT22;4379;59.744;18.206;2023-07-31T11:54:21;19.10;99.90
8684;DHT22;4379;59.744;18.206;2023-07-31T11:56:49;19.00;99.90
8684;DHT22;4379;59.744;18.206;2023-07-31T11:59:17;18.80;99.90
8684;DHT22;4379;59.744;18.206;2023-07-31T12:01:45;18.10;99.90
8684;DHT22;4379;59.744;18.206;2023-07-31T12:04:13;18.00;99.90
8684;DHT22;4379;59.744;18.206;2023-07-31T12:11:05;18.00;99.90
8684;DHT22;4379;59.744;18.206;2023-07-31T12:13:33;17.80;99.90
8684;DHT22;4379;59.744;18.206;2023-07-31T12:16:03;17.90;99.90
8684;DHT22;4379;59.744;18.206;2023-07-31T12:18:38;18.00;99.90
8684;DHT22;4379;59.744;18.206;2023-07-31T12:21:10;18.00;99.90
8684;DHT22;4379;59.744;18.206;2023-07-31T12:23:40;18.00;99.90
8684;DHT22;4379;59.744;18.206;2023-07-31T12:30:29;18.10;99.90
8684;DHT22;4379;59.744;18.206;2023-07-31T12:32:57;18.10;99.90
8684;DHT22;4379;59.744;18.206;2023-07-31T12:35:24;18.00;99.90
8684;DHT22;4379;59.744;18.206;2023-07-31T12:37:54;18.10;99.90
8684;DHT22;4379;59.744;18.206;2023-07-31T12:40:22;18.20;99.90
8684;DHT22;4379;59.744;18.206;2023-07-31T12:43:01;18.20;99.90
8684;DHT22;4379;59.744;18.206;2023-07-31T12:45:30;18.20;99.90
8684;DHT22;4379;59.744;18.206;2023-07-31T12:47:59;18.20;99.90
8684;DHT22;4379;59.744;18.206;2023-07-31T12:50:27;18.10;99.90
8684;DHT22;4379;59.744;18.206;2023-07-31T12:52:57;18.30;99.90
8684;DHT22;4379;59.744;18.206;2023-07-31T12:55:24;18.30;99.90
8684;DHT22;4379;59.744;18.206;2023-07-31T12:57:52;18.30;99.90
8684;DHT22;4379;59.744;18.206;2023-07-31T13:00:21;18.30;99.90
8684;DHT22;4379;59.744;18.206;2023-07-31T13:02:49;18.20;99.90
8684;DHT22;4379;59.744;18.206;2023-07-31T13:05:17;18.40;99.90
8684;DHT22;4379;59.744;18.206;2023-07-31T13:07:45;18.60;99.90
8684;DHT22;4379;59.744;18.206;2023-07-31T13:10:13;18.70;99.90
8684;DHT22;4379;59.744;18.206;2023-07-31T13:12:40;18.70;99.90
8684;DHT22;4379;59.744;18.206;2023-07-31T13:15:08;18.80;99.90
8684;DHT22;4379;59.744;18.206;2023-07-31T13:17:36;18.70;99.90
8684;DHT22;4379;59.744;18.206;2023-07-31T13:20:05;18.80;99.90
8684;DHT22;4379;59.744;18.206;2023-07-31T13:22:32;18.40;99.90
8684;DHT22;4379;59.744;18.206;2023-07-31T13:25:00;18.50;99.90
8684;DHT22;4379;59.744;18.206;2023-07-31T13:27:27;18.10;99.90
8684;DHT22;4379;59.744;18.206;2023-07-31T13:29:55;18.10;99.90
8684;DHT22;4379;59.744;18.206;2023-07-31T13:32:22;18.30;99.90
8684;DHT22;4379;59.744;18.206;2023-07-31T13:34:51;18.40;99.90
8684;DHT22;4379;59.744;18.206;2023-07-31T13:37:19;18.20;99.90
8684;DHT22;4379;59.744;18.206;2023-07-31T13:39:47;18.00;99.90
8684;DHT22;4379;59.744;18.206;2023-07-31T13:42:14;18.30;99.90
8684;DHT22;4379;59.744;18.206;2023-07-31T13:44:42;18.10;99.90
8684;DHT22;4379;59.744;18.206;2023-07-31T13:47:09;18.00;99.90
8684;DHT22;4379;59.744;18.206;2023-07-31T13:49:37;18.00;99.90
8684;DHT22;4379;59.744;18.206;2023-07-31T13:52:06;18.40;99.90
8684;DHT22;4379;59.744;18.206;2023-07-31T13:54:34;18.20;99.90
8684;DHT22;4379;59.744;18.206;2023-07-31T13:57:02;18.30;99.90
8684;DHT22;4379;59.744;18.206;2023-07-31T13:59:29;17.70;99.90
8684;DHT22;4379;59.744;18.206;2023-07-31T14:01:57;17.60;99.90
8684;DHT22;4379;59.744;18.206;2023-07-31T14:04:25;18.20;99.90
8684;DHT22;4379;59.744;18.206;2023-07-31T14:06:52;17.70;99.90
8684;DHT22;4379;59.744;18.206;2023-07-31T14:09:20;17.80;99.90
8684;DHT22;4379;59.744;18.206;2023-07-31T14:11:47;17.90;99.90
8684;DHT22;4379;59.744;18.206;2023-07-31T14:14:15;18.10;99.90
8684;DHT22;4379;59.744;18.206;2023-07-31T14:16:45;17.90;99.90
8684;DHT22;4379;59.744;18.206;2023-07-31T14:19:13;18.00;99.90
8684;DHT22;4379;59.744;18.206;2023-07-31T14:21:41;17.90;99.90
8684;DHT22;4379;59.744;18.206;2023-07-31T14:24:11;18.10;99.90
8684;DHT22;4379;59.744;18.206;2023-07-31T14:26:38;18.10;99.90
8684;DHT22;4379;59.744;18.206;2023-07-31T14:29:07;18.20;99.90
8684;DHT22;4379;59.744;18.206;2023-07-31T14:31:35;18.40;99.90
8684;DHT22;4379;59.744;18.206;2023-07-31T14:34:03;18.00;99.90
8684;DHT22;4379;59.744;18.206;2023-07-31T14:36:30;18.10;99.90
8684;DHT22;4379;59.744;18.206;2023-07-31T14:38:58;18.10;99.90
8684;DHT22;4379;59.744;18.206;2023-07-31T14:41:26;17.90;99.90
8684;DHT22;4379;59.744;18.206;2023-07-31T14:43:53;18.00;99.90
8684;DHT22;4379;59.744;18.206;2023-07-31T14:46:21;18.00;99.90
8684;DHT22;4379;59.744;18.206;2023-07-31T14:48:48;17.70;99.90
8684;DHT22;4379;59.744;18.206;2023-07-31T14:51:16;17.30;99.90
8684;DHT22;4379;59.744;18.206;2023-07-31T14:53:44;17.30;99.90
8684;DHT22;4379;59.744;18.206;2023-07-31T14:56:14;17.10;99.90
8684;DHT22;4379;59.744;18.206;2023-07-31T14:58:42;17.20;99.90
8684;DHT22;4379;59.744;18.206;2023-07-31T15:01:09;17.40;99.90
8684;DHT22;4379;59.744;18.206;2023-07-31T15:03:37;17.60;99.90
8684;DHT22;4379;59.744;18.206;2023-07-31T15:06:04;17.70;99.90
8684;DHT22;4379;59.744;18.206;2023-07-31T15:08:35;17.90;99.90
8684;DHT22;4379;59.744;18.206;2023-07-31T15:11:03;17.80;99.90
8684;DHT22;4379;59.744;18.206;2023-07-31T15:13:31;17.80;99.90
8684;DHT22;4379;59.744;18.206;2023-07-31T15:15:59;18.10;99.90
8684;DHT22;4379;59.744;18.206;2023-07-31T15:18:26;18.20;99.90
8684;DHT22;4379;59.744;18.206;2023-07-31T15:20:54;17.90;99.90
8684;DHT22;4379;59.744;18.206;2023-07-31T15:23:22;17.80;99.90
8684;DHT22;4379;59.744;18.206;2023-07-31T15:25:51;17.80;99.90
8684;DHT22;4379;59.744;18.206;2023-07-31T15:28:19;17.80;99.90
8684;DHT22;4379;59.744;18.206;2023-07-31T15:30:46;17.90;99.90
8684;DHT22;4379;59.744;18.206;2023-07-31T15:33:15;17.80;99.90
8684;DHT22;4379;59.744;18.206;2023-07-31T15:35:43;17.30;99.90
8684;DHT22;4379;59.744;18.206;2023-07-31T15:38:11;17.10;99.90
8684;DHT22;4379;59.744;18.206;2023-07-31T15:40:39;17.20;99.90
8684;DHT22;4379;59.744;18.206;2023-07-31T15:43:07;17.20;99.90
8684;DHT22;4379;59.744;18.206;2023-07-31T15:45:34;17.40;99.90
8684;DHT22;4379;59.744;18.206;2023-07-31T15:48:02;16.90;99.90
8684;DHT22;4379;59.744;18.206;2023-07-31T15:50:30;16.90;99.90
8684;DHT22;4379;59.744;18.206;2023-07-31T15:52:58;17.20;99.90
8684;DHT22;4379;59.744;18.206;2023-07-31T15:55:28;17.10;99.90
8684;DHT22;4379;59.744;18.206;2023-07-31T15:57:55;17.10;99.90
8684;DHT22;4379;59.744;18.206;2023-07-31T16:00:23;16.90;99.90
8684;DHT22;4379;59.744;18.206;2023-07-31T16:02:50;16.70;99.90
8684;DHT22;4379;59.744;18.206;2023-07-31T16:05:18;16.50;99.90
8684;DHT22;4379;59.744;18.206;2023-07-31T16:07:46;16.40;99.90
8684;DHT22;4379;59.744;18.206;2023-07-31T16:10:13;16.30;99.90
8684;DHT22;4379;59.744;18.206;2023-07-31T16:12:40;16.50;99.90
8684;DHT22;4379;59.744;18.206;2023-07-31T16:15:08;16.50;99.90
8684;DHT22;4379;59.744;18.206;2023-07-31T16:17:36;16.30;99.90
8684;DHT22;4379;59.744;18.206;2023-07-31T16:20:04;16.20;99.90
8684;DHT22;4379;59.744;18.206;2023-07-31T16:22:33;16.20;99.90
8684;DHT22;4379;59.744;18.206;2023-07-31T16:25:01;16.40;99.90
8684;DHT22;4379;59.744;18.206;2023-07-31T16:27:28;16.20;99.90
8684;DHT22;4379;59.744;18.206;2023-07-31T16:29:56;16.30;99.90
8684;DHT22;4379;59.744;18.206;2023-07-31T16:32:27;16.10;99.90
8684;DHT22;4379;59.744;18.206;2023-07-31T16:34:55;16.00;99.90
8684;DHT22;4379;59.744;18.206;2023-07-31T16:37:23;15.90;99.90
8684;DHT22;4379;59.744;18.206;2023-07-31T16:39:51;16.10;99.90
8684;DHT22;4379;59.744;18.206;2023-07-31T16:42:20;15.90;99.90
8684;DHT22;4379;59.744;18.206;2023-07-31T16:44:48;15.90;99.90
8684;DHT22;4379;59.744;18.206;2023-07-31T16:47:16;15.90;99.90
8684;DHT22;4379;59.744;18.206;2023-07-31T16:49:44;15.70;99.90
8684;DHT22;4379;59.744;18.206;2023-07-31T16:52:11;15.80;99.90
8684;DHT22;4379;59.744;18.206;2023-07-31T16:54:39;15.60;99.90
8684;DHT22;4379;59.744;18.206;2023-07-31T16:57:06;15.70;99.90
8684;DHT22;4379;59.744;18.206;2023-07-31T16:59:34;15.70;99.90
8684;DHT22;4379;59.744;18.206;2023-07-31T17:02:02;15.70;99.90
8684;DHT22;4379;59.744;18.206;2023-07-31T17:04:31;15.60;99.90
8684;DHT22;4379;59.744;18.206;2023-07-31T17:06:58;15.70;99.90
8684;DHT22;4379;59.744;18.206;2023-07-31T17:09:26;15.70;99.90
8684;DHT22;4379;59.744;18.206;2023-07-31T17:11:54;15.70;99.90
8684;DHT22;4379;59.744;18.206;2023-07-31T17:14:21;15.80;99.90
8684;DHT22;4379;59.744;18.206;2023-07-31T17:16:49;15.70;99.90
8684;DHT22;4379;59.744;18.206;2023-07-31T17:19:16;15.80;99.90
8684;DHT22;4379;59.744;18.206;2023-07-31T17:21:44;15.80;99.90
8684;DHT22;4379;59.744;18.206;2023-07-31T17:24:11;15.80;99.90
8684;DHT22;4379;59.744;18.206;2023-07-31T17:26:40;15.70;99.90
8684;DHT22;4379;59.744;18.206;2023-07-31T17:29:13;15.70;99.90
8684;DHT22;4379;59.744;18.206;2023-07-31T17:31:44;15.70;99.90
8684;DHT22;4379;59.744;18.206;2023-07-31T17:34:11;15.70;99.90
8684;DHT22;4379;59.744;18.206;2023-07-31T17:36:39;15.60;99.90
8684;DHT22;4379;59.744;18.206;2023-07-31T17:39:06;15.70;99.90
8684;DHT22;4379;59.744;18.206;2023-07-31T17:41:34;15.60;99.90
8684;DHT22;4379;59.744;18.206;2023-07-31T17:44:01;15.50;99.90
8684;DHT22;4379;59.744;18.206;2023-07-31T17:46:29;15.40;99.90
8684;DHT22;4379;59.744;18.206;2023-07-31T17:48:57;15.30;99.90
8684;DHT22;4379;59.744;18.206;2023-07-31T17:51:26;15.30;99.90
8684;DHT22;4379;59.744;18.206;2023-07-31T17:53:53;15.30;99.90
8684;DHT22;4379;59.744;18.206;2023-07-31T17:56:21;15.20;99.90
8684;DHT22;4379;59.744;18.206;2023-07-31T17:58:48;15.30;99.90
8684;DHT22;4379;59.744;18.206;2023-07-31T18:01:16;15.30;99.90
8684;DHT22;4379;59.744;18.206;2023-07-31T18:03:43;15.30;99.90
8684;DHT22;4379;59.744;18.206;2023-07-31T18:06:11;15.20;99.90
8684;DHT22;4379;59.744;18.206;2023-07-31T18:08:39;15.10;99.90
8684;DHT22;4379;59.744;18.206;2023-07-31T18:11:07;15.10;99.90
8684;DHT22;4379;59.744;18.206;2023-07-31T18:13:35;15.10;99.90
8684;DHT22;4379;59.744;18.206;2023-07-31T18:16:02;15.10;99.90
8684;DHT22;4379;59.744;18.206;2023-07-31T18:18:31;15.20;99.90
8684;DHT22;4379;59.744;18.206;2023-07-31T18:20:59;15.20;99.90
8684;DHT22;4379;59.744;18.206;2023-07-31T18:23:28;15.10;99.90
8684;DHT22;4379;59.744;18.206;2023-07-31T18:25:56;15.10;99.90
8684;DHT22;4379;59.744;18.206;2023-07-31T18:28:23;15.00;99.90
8684;DHT22;4379;59.744;18.206;2023-07-31T18:31:00;14.90;99.90
8684;DHT22;4379;59.744;18.206;2023-07-31T18:33:31;14.80;99.90
8684;DHT22;4379;59.744;18.206;2023-07-31T18:36:03;14.80;99.90
8684;DHT22;4379;59.744;18.206;2023-07-31T18:38:32;14.70;99.90
8684;DHT22;4379;59.744;18.206;2023-07-31T18:40:59;14.70;99.90
8684;DHT22;4379;59.744;18.206;2023-07-31T18:43:27;14.70;99.90
8684;DHT22;4379;59.744;18.206;2023-07-31T18:45:55;14.70;99.90
8684;DHT22;4379;59.744;18.206;2023-07-31T18:48:22;14.60;99.90
8684;DHT22;4379;59.744;18.206;2023-07-31T18:50:51;14.50;99.90
8684;DHT22;4379;59.744;18.206;2023-07-31T18:53:19;14.50;99.90
8684;DHT22;4379;59.744;18.206;2023-07-31T18:55:48;14.50;99.90
8684;DHT22;4379;59.744;18.206;2023-07-31T18:58:15;14.50;99.90
8684;DHT22;4379;59.744;18.206;2023-07-31T19:00:43;14.50;99.90
8684;DHT22;4379;59.744;18.206;2023-07-31T19:03:11;14.40;99.90
8684;DHT22;4379;59.744;18.206;2023-07-31T19:05:39;14.40;99.90
8684;DHT22;4379;59.744;18.206;2023-07-31T19:08:07;14.30;99.90
8684;DHT22;4379;59.744;18.206;2023-07-31T19:10:36;14.30;99.90
8684;DHT22;4379;59.744;18.206;2023-07-31T19:13:04;14.40;99.90
8684;DHT22;4379;59.744;18.206;2023-07-31T19:15:33;14.40;99.90
8684;DHT22;4379;59.744;18.206;2023-07-31T19:18:02;14.40;99.90
8684;DHT22;4379;59.744;18.206;2023-07-31T19:20:33;14.40;99.90
8684;DHT22;4379;59.744;18.206;2023-07-31T19:23:01;14.40;99.90
8684;DHT22;4379;59.744;18.206;2023-07-31T19:25:29;14.30;99.90
8684;DHT22;4379;59.744;18.206;2023-07-31T19:27:57;14.20;99.90
8684;DHT22;4379;59.744;18.206;2023-07-31T19:30:25;14.10;99.90
8684;DHT22;4379;59.744;18.206;2023-07-31T19:32:53;14.10;99.90
8684;DHT22;4379;59.744;18.206;2023-07-31T19:35:22;14.10;99.90
8684;DHT22;4379;59.744;18.206;2023-07-31T19:37:52;14.10;99.90
8684;DHT22;4379;59.744;18.206;2023-07-31T19:40:20;13.90;99.90
8684;DHT22;4379;59.744;18.206;2023-07-31T19:42:49;13.90;99.90
8684;DHT22;4379;59.744;18.206;2023-07-31T19:45:16;13.90;99.90
8684;DHT22;4379;59.744;18.206;2023-07-31T19:47:44;13.90;99.90
8684;DHT22;4379;59.744;18.206;2023-07-31T19:50:12;13.80;99.90
8684;DHT22;4379;59.744;18.206;2023-07-31T19:52:40;13.90;99.90
8684;DHT22;4379;59.744;18.206;2023-07-31T19:55:09;13.90;99.90
8684;DHT22;4379;59.744;18.206;2023-07-31T19:57:37;13.80;99.90
8684;DHT22;4379;59.744;18.206;2023-07-31T20:00:05;13.80;99.90
8684;DHT22;4379;59.744;18.206;2023-07-31T20:02:33;13.80;99.90
8684;DHT22;4379;59.744;18.206;2023-07-31T20:05:02;13.80;99.90
8684;DHT22;4379;59.744;18.206;2023-07-31T20:07:29;13.70;99.90
8684;DHT22;4379;59.744;18.206;2023-07-31T20:09:57;13.70;99.90
8684;DHT22;4379;59.744;18.206;2023-07-31T20:12:27;13.70;99.90
8684;DHT22;4379;59.744;18.206;2023-07-31T20:14:55;13.70;99.90
8684;DHT22;4379;59.744;18.206;2023-07-31T20:17:23;13.70;99.90
8684;DHT22;4379;59.744;18.206;2023-07-31T20:19:55;13.60;99.90
8684;DHT22;4379;59.744;18.206;2023-07-31T20:22:23;13.70;99.90
8684;DHT22;4379;59.744;18.206;2023-07-31T20:24:50;13.60;99.90
8684;DHT22;4379;59.744;18.206;2023-07-31T20:27:21;13.60;99.90
8684;DHT22;4379;59.744;18.206;2023-07-31T20:29:48;13.70;99.90
8684;DHT22;4379;59.744;18.206;2023-07-31T20:32:17;13.60;99.90
8684;DHT22;4379;59.744;18.206;2023-07-31T20:34:45;13.60;99.90
8684;DHT22;4379;59.744;18.206;2023-07-31T20:37:13;13.60;99.90
8684;DHT22;4379;59.744;18.206;2023-07-31T20:39:41;13.60;99.90
8684;DHT22;4379;59.744;18.206;2023-07-31T20:42:09;13.50;99.90
8684;DHT22;4379;59.744;18.206;2023-07-31T20:44:41;13.50;99.90
8684;DHT22;4379;59.744;18.206;2023-07-31T20:47:10;13.60;99.90
8684;DHT22;4379;59.744;18.206;2023-07-31T20:49:38;13.50;99.90
8684;DHT22;4379;59.744;18.206;2023-07-31T20:52:06;13.50;99.90
8684;DHT22;4379;59.744;18.206;2023-07-31T20:54:33;13.50;99.90
8684;DHT22;4379;59.744;18.206;2023-07-31T20:57:01;13.50;99.90
8684;DHT22;4379;59.744;18.206;2023-07-31T20:59:28;13.40;99.90
8684;DHT22;4379;59.744;18.206;2023-07-31T21:01:56;13.40;99.90
8684;DHT22;4379;59.744;18.206;2023-07-31T21:04:23;13.20;99.90
8684;DHT22;4379;59.744;18.206;2023-07-31T21:06:51;13.20;99.90
8684;DHT22;4379;59.744;18.206;2023-07-31T21:09:18;13.20;99.90
8684;DHT22;4379;59.744;18.206;2023-07-31T21:11:46;13.20;99.90
8684;DHT22;4379;59.744;18.206;2023-07-31T21:14:13;13.20;99.90
8684;DHT22;4379;59.744;18.206;2023-07-31T21:16:41;13.20;99.90
8684;DHT22;4379;59.744;18.206;2023-07-31T21:19:08;13.20;99.90
8684;DHT22;4379;59.744;18.206;2023-07-31T21:21:36;13.40;99.90
8684;DHT22;4379;59.744;18.206;2023-07-31T21:24:03;13.50;99.90
8684;DHT22;4379;59.744;18.206;2023-07-31T21:26:31;13.50;99.90
8684;DHT22;4379;59.744;18.206;2023-07-31T21:28:58;13.50;99.90
8684;DHT22;4379;59.744;18.206;2023-07-31T21:31:28;13.50;99.90
8684;DHT22;4379;59.744;18.206;2023-07-31T21:33:55;13.60;99.90
8684;DHT22;4379;59.744;18.206;2023-07-31T21:36:23;13.60;99.90
8684;DHT22;4379;59.744;18.206;2023-07-31T21:38:50;13.60;99.90
8684;DHT22;4379;59.744;18.206;2023-07-31T21:41:18;13.60;99.90
8684;DHT22;4379;59.744;18.206;2023-07-31T21:43:45;13.60;99.90
8684;DHT22;4379;59.744;18.206;2023-07-31T21:46:13;13.70;99.90
8684;DHT22;4379;59.744;18.206;2023-07-31T21:48:40;13.70;99.90
8684;DHT22;4379;59.744;18.206;2023-07-31T21:51:08;13.70;99.90
8684;DHT22;4379;59.744;18.206;2023-07-31T21:53:38;13.70;99.90
8684;DHT22;4379;59.744;18.206;2023-07-31T21:56:05;13.70;99.90
8684;DHT22;4379;59.744;18.206;2023-07-31T21:58:32;13.70;99.90
8684;DHT22;4379;59.744;18.206;2023-07-31T22:01:00;13.70;99.90
8684;DHT22;4379;59.744;18.206;2023-07-31T22:03:27;13.70;99.90
8684;DHT22;4379;59.744;18.206;2023-07-31T22:05:55;13.70;99.90
8684;DHT22;4379;59.744;18.206;2023-07-31T22:08:22;13.70;99.90
8684;DHT22;4379;59.744;18.206;2023-07-31T22:10:50;13.70;99.90
8684;DHT22;4379;59.744;18.206;2023-07-31T22:13:17;13.70;99.90
8684;DHT22;4379;59.744;18.206;2023-07-31T22:15:45;13.70;99.90
8684;DHT22;4379;59.744;18.206;2023-07-31T22:18:14;13.70;99.90
8684;DHT22;4379;59.744;18.206;2023-07-31T22:20:42;13.70;99.90
8684;DHT22;4379;59.744;18.206;2023-07-31T22:23:14;13.70;99.90
8684;DHT22;4379;59.744;18.206;2023-07-31T22:25:42;13.70;99.90
8684;DHT22;4379;59.744;18.206;2023-07-31T22:28:09;13.60;99.90
8684;DHT22;4379;59.744;18.206;2023-07-31T22:30:47;13.60;99.90
8684;DHT22;4379;59.744;18.206;2023-07-31T22:33:14;13.60;99.90
8684;DHT22;4379;59.744;18.206;2023-07-31T22:35:42;13.60;99.90
8684;DHT22;4379;59.744;18.206;2023-07-31T22:38:09;13.50;99.90
8684;DHT22;4379;59.744;18.206;2023-07-31T22:40:37;13.60;99.90
8684;DHT22;4379;59.744;18.206;2023-07-31T22:43:04;13.50;99.90
8684;DHT22;4379;59.744;18.206;2023-07-31T22:45:32;13.40;99.90
8684;DHT22;4379;59.744;18.206;2023-07-31T22:47:59;13.50;99.90
8684;DHT22;4379;59.744;18.206;2023-07-31T22:50:27;13.40;99.90
8684;DHT22;4379;59.744;18.206;2023-07-31T22:52:54;13.40;99.90
8684;DHT22;4379;59.744;18.206;2023-07-31T22:55:22;13.40;99.90
8684;DHT22;4379;59.744;18.206;2023-07-31T22:57:50;13.40;99.90
8684;DHT22;4379;59.744;18.206;2023-07-31T23:00:18;13.40;99.90
8684;DHT22;4379;59.744;18.206;2023-07-31T23:02:45;13.30;99.90
8684;DHT22;4379;59.744;18.206;2023-07-31T23:05:13;13.20;99.90
8684;DHT22;4379;59.744;18.206;2023-07-31T23:07:41;13.10;99.90
8684;DHT22;4379;59.744;18.206;2023-07-31T23:10:08;13.10;99.90
8684;DHT22;4379;59.744;18.206;2023-07-31T23:12:36;13.00;99.90
8684;DHT22;4379;59.744;18.206;2023-07-31T23:15:04;12.90;99.90
8684;DHT22;4379;59.744;18.206;2023-07-31T23:17:32;12.90;99.90
8684;DHT22;4379;59.744;18.206;2023-07-31T23:19:59;12.90;99.90
8684;DHT22;4379;59.744;18.206;2023-07-31T23:22:27;12.70;99.90
8684;DHT22;4379;59.744;18.206;2023-07-31T23:24:54;12.60;99.90
8684;DHT22;4379;59.744;18.206;2023-07-31T23:27:22;12.60;99.90
8684;DHT22;4379;59.744;18.206;2023-07-31T23:29:50;12.50;99.90
8684;DHT22;4379;59.744;18.206;2023-07-31T23:32:17;12.50;99.90
8684;DHT22;4379;59.744;18.206;2023-07-31T23:34:45;12.50;99.90
8684;DHT22;4379;59.744;18.206;2023-07-31T23:37:12;12.50;99.90
8684;DHT22;4379;59.744;18.206;2023-07-31T23:39:40;12.40;99.90
8684;DHT22;4379;59.744;18.206;2023-07-31T23:42:07;12.50;99.90
8684;DHT22;4379;59.744;18.206;2023-07-31T23:44:35;12.40;99.90
8684;DHT22;4379;59.744;18.206;2023-07-31T23:47:02;12.30;99.90
8684;DHT22;4379;59.744;18.206;2023-07-31T23:49:30;12.30;99.90
8684;DHT22;4379;59.744;18.206;2023-07-31T23:51:57;12.20;99.90
8684;DHT22;4379;59.744;18.206;2023-07-31T23:54:25;12.20;99.90
8684;DHT22;4379;59.744;18.206;2023-07-31T23:56:52;12.10;99.90
8684;DHT22;4379;59.744;18.206;2023-07-31T23:59:21;12.10;99.90
